Airfield :
LOGIN :

Register | Disclaimer

   EN    FR    IT 

 










Legend :    VFR   Marginal VFR   IFR   Intensive IFR   Very Intensive IFR
Visi :
Ceiling :
>= 8 km
>= 3000ft
5 to 8 km
1000 to 3000 ft
1500m to 5 km
500 to 1000 ft
800 to 1500m
200 to 500 ft
< 800m
< 200 ft
Symbols :   Thunderstorms  Fog  Heavy snow  Heavy precipitations  Wind > 20 kt
SIGMETs :     Misc.  Thunderstorms  Icing  Turbulence  Mountain Waves  Volcanic Ashes






- Airport Elevation : 913 ft


LFSX - Luxeuil

CURRENT METAR :
  • 091030Z AUTO 24019G31KT 9999 SCT015/// BKN020/// BKN026/// ///TCU 07/06 Q1006

EXPIRED METARs :
  • 091000Z AUTO 23021G31KT 9000 -RA BKN017/// OVC025/// ///TCU 07/05 Q1006
  • 090930Z AUTO 22016KT 6000 -RA FEW016/// BKN021/// BKN031/// ///TCU 06/05 Q1006
  • 090900Z AUTO 23020KT 6000 RA FEW018/// BKN024/// BKN037/// ///TCU 07/05 Q1006
  • 090830Z AUTO 23018KT 190V250 9999 -DZ SCT018 BKN024 BKN032 07/05 Q1006
  • 090800Z AUTO 22015KT 7000 -RA BKN019 OVC029 07/05 Q1006

TAF TAF LFSX
Valid from the 09 at 09:00 until the 10 at 09:00 UTC


090800Z 0909/1009 22010G20KT 8000 -RA BKN016
TEMPO 0912/0915 24015G35KT 4000 SHRA BKN014
FM091500 29015KT 9000 BKN016
TEMPO 0915/0924 -RA
TEMPO 1003/1009 4000 BR BKN009



MET'MAP, your aeronautical weather chart ! - Copyright ORBIFLY December 2007 - Disclaimer

ORBIFLY MET'MAP TEAM :

Programming & Development : Alexandra Zaïnal
Concept & original design : Baudouin d'Aumeries
Assistance for programming : Marc-Olivier Méhu
Technical & hardware support : Manuel Goepfert

Contact : metmap@orbifly.com




SOURCES & CREDITS :

   NOAA